Time;durP1;ratioP1;P1;durP2;ratioP2;P2;SDS_P1;SDS_P2;PMS_P1;PMS_P2;Temp;Humidity;BMP_temperature;BMP_pressure;BME280_temperature;BME280_humidity;BME280_pressure;Samples;Min_cycle;Max_cycle;Signal;HPM_P1;HPM_P2
2023/09/30 00:01:25;;;;;;;24.50;11.10;;;;;;;;;;5056719;28;20516;-76
2023/09/30 00:03:53;;;;;;;23.90;12.10;;;;;;;;;;5056369;28;21014;-76
2023/09/30 00:06:21;;;;;;;18.90;10.83;;;;;;;;;;5056439;28;20495;-76
2023/09/30 00:08:51;;;;;;;19.83;11.90;;;;;;;;;;5056048;28;20441;-76
2023/09/30 00:11:19;;;;;;;22.53;12.77;;;;;;;;;;5056407;28;20543;-75
2023/09/30 00:13:53;;;;;;;25.50;12.03;;;;;;;;;;5056503;28;20445;-75
2023/09/30 00:16:21;;;;;;;19.47;10.97;;;;;;;;;;5056274;28;20443;-75
2023/09/30 00:18:53;;;;;;;20.87;11.07;;;;;;;;;;5055938;28;20819;-76
2023/09/30 00:21:23;;;;;;;19.80;11.73;;;;;;;;;;5056344;28;20433;-76
2023/09/30 00:23:51;;;;;;;22.27;11.33;;;;;;;;;;5056290;28;20807;-75
2023/09/30 00:26:25;;;;;;;22.63;10.93;;;;;;;;;;5057025;28;20498;-76
2023/09/30 00:28:55;;;;;;;20.23;11.30;;;;;;;;;;5055870;28;20432;-76
2023/09/30 00:31:24;;;;;;;20.00;10.30;;;;;;;;;;5055782;28;20472;-76
2023/09/30 00:33:51;;;;;;;23.83;12.50;;;;;;;;;;5055861;28;20471;-76
2023/09/30 00:36:22;;;;;;;24.20;11.37;;;;;;;;;;5055659;28;20430;-76
2023/09/30 00:38:50;;;;;;;24.50;12.03;;;;;;;;;;5055953;28;20424;-76
2023/09/30 00:41:20;;;;;;;24.93;12.23;;;;;;;;;;5055510;28;20434;-76
2023/09/30 00:43:49;;;;;;;26.97;11.90;;;;;;;;;;5056012;28;20834;-76
2023/09/30 00:46:22;;;;;;;25.90;11.60;;;;;;;;;;5055535;28;20520;-76
2023/09/30 00:48:52;;;;;;;19.37;10.50;;;;;;;;;;5055779;28;20746;-76
2023/09/30 00:51:20;;;;;;;19.90;11.73;;;;;;;;;;5055042;28;20555;-76
2023/09/30 00:53:47;;;;;;;30.20;12.57;;;;;;;;;;5055653;28;20779;-76
2023/09/30 00:56:16;;;;;;;22.90;12.20;;;;;;;;;;5055505;28;20491;-76
2023/09/30 00:58:43;;;;;;;22.50;12.60;;;;;;;;;;5055369;28;20916;-76
2023/09/30 01:01:11;;;;;;;23.93;12.57;;;;;;;;;;5055353;28;20873;-76
2023/09/30 01:03:40;;;;;;;25.47;11.83;;;;;;;;;;5055462;28;20429;-76
2023/09/30 01:06:09;;;;;;;23.57;11.57;;;;;;;;;;5055277;28;20510;-76
2023/09/30 01:08:37;;;;;;;21.70;11.27;;;;;;;;;;5055076;28;20433;-76
2023/09/30 01:11:05;;;;;;;22.43;10.57;;;;;;;;;;5054978;28;20480;-76
2023/09/30 01:13:35;;;;;;;26.83;11.90;;;;;;;;;;5054776;28;20426;-76
2023/09/30 01:16:06;;;;;;;22.80;12.63;;;;;;;;;;5055234;28;20788;-76
2023/09/30 01:18:34;;;;;;;22.63;11.60;;;;;;;;;;5054763;28;20465;-76
2023/09/30 01:21:05;;;;;;;22.13;11.60;;;;;;;;;;5054905;28;20458;-76
2023/09/30 01:23:35;;;;;;;20.50;10.80;;;;;;;;;;5062530;28;20508;-76
2023/09/30 01:26:10;;;;;;;23.00;12.30;;;;;;;;;;5075144;28;20432;-76
2023/09/30 01:28:37;;;;;;;20.33;10.80;;;;;;;;;;5074818;28;20947;-76
2023/09/30 01:31:10;;;;;;;21.23;12.23;;;;;;;;;;5074976;28;20893;-76
2023/09/30 01:33:38;;;;;;;21.90;12.00;;;;;;;;;;5075261;28;20482;-76
2023/09/30 01:36:10;;;;;;;21.47;11.77;;;;;;;;;;5072754;28;20445;-76
2023/09/30 01:38:39;;;;;;;23.27;12.53;;;;;;;;;;5074126;28;20425;-76
2023/09/30 01:41:08;;;;;;;24.33;12.53;;;;;;;;;;5074473;28;20519;-76
2023/09/30 01:43:37;;;;;;;25.93;12.20;;;;;;;;;;5074633;28;20439;-76
2023/09/30 01:46:06;;;;;;;23.67;12.40;;;;;;;;;;5074357;28;20482;-76
2023/09/30 01:48:34;;;;;;;21.10;10.97;;;;;;;;;;5058216;28;20433;-76
2023/09/30 01:51:02;;;;;;;23.97;11.97;;;;;;;;;;5054576;28;20563;-76
2023/09/30 01:53:29;;;;;;;28.67;13.17;;;;;;;;;;5054152;28;20522;-76
2023/09/30 01:55:58;;;;;;;21.53;11.97;;;;;;;;;;5054225;28;20864;-76
2023/09/30 01:58:26;;;;;;;23.53;11.70;;;;;;;;;;5054608;28;20437;-76
2023/09/30 02:00:54;;;;;;;24.47;12.83;;;;;;;;;;5054207;28;20807;-76
2023/09/30 02:03:21;;;;;;;24.27;11.67;;;;;;;;;;5054271;28;20800;-76
2023/09/30 02:05:49;;;;;;;21.53;11.47;;;;;;;;;;5054349;28;20463;-76
2023/09/30 02:08:18;;;;;;;21.63;10.90;;;;;;;;;;5054222;28;20446;-76
2023/09/30 02:10:46;;;;;;;24.10;11.80;;;;;;;;;;5053845;28;20995;-76
2023/09/30 02:13:15;;;;;;;22.47;11.33;;;;;;;;;;5054054;28;20437;-76
2023/09/30 02:15:42;;;;;;;21.70;12.50;;;;;;;;;;5053629;28;20446;-76
2023/09/30 02:18:12;;;;;;;21.53;12.00;;;;;;;;;;5053358;28;20801;-76
2023/09/30 02:20:41;;;;;;;20.27;10.90;;;;;;;;;;5053881;28;20430;-76
2023/09/30 02:23:11;;;;;;;20.23;11.43;;;;;;;;;;5053638;28;20433;-76
2023/09/30 02:25:40;;;;;;;25.93;11.40;;;;;;;;;;5053664;28;20438;-76
2023/09/30 02:28:08;;;;;;;21.47;10.87;;;;;;;;;;5053895;28;20520;-76
2023/09/30 02:30:37;;;;;;;20.43;12.67;;;;;;;;;;5058849;28;20503;-76
2023/09/30 02:33:06;;;;;;;24.70;11.40;;;;;;;;;;5073638;28;20519;-76
2023/09/30 02:35:34;;;;;;;18.73;10.17;;;;;;;;;;5074016;28;20440;-76
2023/09/30 02:38:03;;;;;;;20.97;11.23;;;;;;;;;;5073685;28;20523;-76
2023/09/30 02:40:30;;;;;;;19.27;11.87;;;;;;;;;;5073496;28;20451;-76
2023/09/30 02:43:01;;;;;;;23.17;12.90;;;;;;;;;;5073787;28;20922;-76
2023/09/30 02:45:28;;;;;;;18.43;11.77;;;;;;;;;;5073099;28;20463;-76
2023/09/30 02:47:58;;;;;;;20.23;10.83;;;;;;;;;;5073354;28;20440;-76
2023/09/30 02:50:26;;;;;;;23.60;12.43;;;;;;;;;;5072742;28;20475;-76
2023/09/30 02:52:53;;;;;;;19.13;11.37;;;;;;;;;;5073191;28;20948;-76
2023/09/30 02:55:21;;;;;;;24.40;11.50;;;;;;;;;;5073570;28;20436;-76
2023/09/30 02:57:49;;;;;;;21.83;11.00;;;;;;;;;;5072788;28;20437;-75
2023/09/30 03:00:23;;;;;;;23.87;12.70;;;;;;;;;;5073175;28;20523;-76
2023/09/30 03:02:53;;;;;;;24.47;12.70;;;;;;;;;;5073159;28;20906;-76
2023/09/30 03:05:23;;;;;;;22.90;11.13;;;;;;;;;;5073167;28;20439;-76
2023/09/30 03:07:51;;;;;;;21.80;11.20;;;;;;;;;;5072972;28;20483;-76
2023/09/30 03:10:20;;;;;;;22.73;11.00;;;;;;;;;;5073090;28;20524;-76
2023/09/30 03:12:48;;;;;;;25.10;10.67;;;;;;;;;;5072866;28;20776;-76
2023/09/30 03:15:18;;;;;;;25.80;11.87;;;;;;;;;;5073237;28;20443;-76
2023/09/30 03:17:46;;;;;;;25.20;10.53;;;;;;;;;;5072352;28;20922;-75
2023/09/30 03:20:14;;;;;;;22.73;12.40;;;;;;;;;;5073256;28;20438;-76
2023/09/30 03:22:46;;;;;;;24.20;9.97;;;;;;;;;;5072696;28;20480;-76
2023/09/30 03:25:17;;;;;;;20.20;11.17;;;;;;;;;;5072991;28;20429;-76
2023/09/30 03:27:46;;;;;;;19.83;9.77;;;;;;;;;;5072982;28;20800;-76
2023/09/30 03:30:15;;;;;;;21.47;11.60;;;;;;;;;;5071791;28;20524;-76
2023/09/30 03:32:47;;;;;;;19.93;9.43;;;;;;;;;;5077311;28;20436;-75
2023/09/30 03:35:16;;;;;;;25.17;12.10;;;;;;;;;;5076986;28;20423;-76
2023/09/30 03:37:50;;;;;;;21.80;10.20;;;;;;;;;;5076848;28;20802;-76
2023/09/30 03:40:27;;;;;;;19.27;10.53;;;;;;;;;;5076445;28;20436;-76
2023/09/30 03:42:54;;;;;;;20.93;10.40;;;;;;;;;;5076903;28;20424;-76
2023/09/30 03:45:22;;;;;;;23.10;11.30;;;;;;;;;;5077285;28;20437;-76
2023/09/30 03:47:51;;;;;;;23.67;10.80;;;;;;;;;;5077207;28;20852;-76
2023/09/30 03:50:19;;;;;;;24.80;10.80;;;;;;;;;;5076079;28;20957;-76
2023/09/30 03:52:47;;;;;;;23.50;10.97;;;;;;;;;;5076608;28;20436;-76
2023/09/30 03:55:17;;;;;;;20.20;10.10;;;;;;;;;;5076671;28;20440;-76
2023/09/30 03:57:47;;;;;;;19.47;11.60;;;;;;;;;;5076543;28;20437;-75
2023/09/30 04:00:18;;;;;;;23.57;10.60;;;;;;;;;;5075910;28;20948;-76
2023/09/30 04:02:49;;;;;;;25.23;11.40;;;;;;;;;;5076830;28;20459;-76
2023/09/30 04:05:17;;;;;;;19.10;9.20;;;;;;;;;;5076812;28;20743;-76
2023/09/30 04:07:46;;;;;;;19.93;10.20;;;;;;;;;;5076394;28;20917;-75
2023/09/30 04:10:14;;;;;;;19.53;9.83;;;;;;;;;;5075764;28;20921;-76
2023/09/30 04:12:43;;;;;;;18.77;9.97;;;;;;;;;;5076750;28;20475;-76
2023/09/30 04:15:12;;;;;;;19.97;11.00;;;;;;;;;;5076146;28;20436;-76
2023/09/30 04:17:40;;;;;;;21.90;9.67;;;;;;;;;;5076016;28;20447;-76
2023/09/30 04:20:10;;;;;;;21.93;11.20;;;;;;;;;;5062436;28;20504;-76
2023/09/30 04:22:40;;;;;;;25.40;11.17;;;;;;;;;;5055753;28;20440;-76
2023/09/30 04:25:10;;;;;;;23.67;11.70;;;;;;;;;;5056424;28;20440;-76
2023/09/30 04:27:39;;;;;;;18.30;9.77;;;;;;;;;;5056062;28;20483;-76
2023/09/30 04:30:10;;;;;;;24.03;11.33;;;;;;;;;;5073419;28;20449;-75
2023/09/30 04:32:40;;;;;;;18.67;10.77;;;;;;;;;;5076162;28;20474;-76
2023/09/30 04:35:08;;;;;;;20.90;9.27;;;;;;;;;;5076169;28;20927;-76
2023/09/30 04:37:36;;;;;;;17.63;9.40;;;;;;;;;;5076209;28;20515;-76
2023/09/30 04:40:07;;;;;;;25.10;10.53;;;;;;;;;;5075470;28;20440;-76
2023/09/30 04:42:37;;;;;;;20.27;10.80;;;;;;;;;;5075091;28;20428;-76
2023/09/30 04:45:07;;;;;;;19.17;10.53;;;;;;;;;;5076039;28;20512;-76
2023/09/30 04:47:38;;;;;;;19.87;10.97;;;;;;;;;;5075396;28;20452;-76
2023/09/30 04:50:09;;;;;;;23.20;9.47;;;;;;;;;;5075872;28;20437;-76
2023/09/30 04:52:40;;;;;;;18.70;9.30;;;;;;;;;;5075771;28;20475;-76
2023/09/30 04:55:08;;;;;;;23.50;11.57;;;;;;;;;;5075794;28;20424;-76
2023/09/30 04:57:37;;;;;;;20.93;10.50;;;;;;;;;;5075697;28;20448;-76
2023/09/30 05:00:11;;;;;;;24.00;9.40;;;;;;;;;;5075411;28;20448;-76
2023/09/30 05:02:40;;;;;;;20.40;9.00;;;;;;;;;;5075525;28;20520;-75
2023/09/30 05:05:09;;;;;;;20.13;8.60;;;;;;;;;;5075322;28;20873;-76
2023/09/30 05:07:36;;;;;;;21.70;10.03;;;;;;;;;;5075486;28;20839;-76
2023/09/30 05:10:10;;;;;;;19.33;10.00;;;;;;;;;;5075006;28;20942;-76
2023/09/30 05:12:45;;;;;;;19.07;9.60;;;;;;;;;;5075338;28;20547;-76
2023/09/30 05:15:16;;;;;;;24.80;11.67;;;;;;;;;;5075091;28;20456;-76
2023/09/30 05:17:45;;;;;;;21.60;9.00;;;;;;;;;;5075112;28;20429;-76
2023/09/30 05:20:13;;;;;;;21.10;9.07;;;;;;;;;;5074350;28;20990;-76
2023/09/30 05:22:43;;;;;;;18.50;9.70;;;;;;;;;;5074878;28;20464;-76
2023/09/30 05:25:15;;;;;;;19.87;10.80;;;;;;;;;;5068518;28;20469;-76
2023/09/30 05:27:43;;;;;;;22.97;11.10;;;;;;;;;;5054610;28;20429;-76
2023/09/30 05:30:12;;;;;;;20.00;9.90;;;;;;;;;;5054340;28;20442;-76
2023/09/30 05:32:39;;;;;;;22.57;9.90;;;;;;;;;;5054290;28;20531;-76
2023/09/30 05:35:12;;;;;;;21.40;11.50;;;;;;;;;;5054527;28;20425;-76
2023/09/30 05:37:40;;;;;;;22.13;10.90;;;;;;;;;;5054457;28;20456;-76
2023/09/30 05:40:20;;;;;;;18.33;9.67;;;;;;;;;;5054445;28;20491;-76
2023/09/30 05:42:48;;;;;;;28.50;10.50;;;;;;;;;;5054351;28;20926;-76
2023/09/30 05:45:16;;;;;;;20.47;11.07;;;;;;;;;;5054501;28;20518;-76
2023/09/30 05:47:44;;;;;;;20.83;10.60;;;;;;;;;;5053890;28;20446;-76
2023/09/30 05:50:17;;;;;;;20.20;11.00;;;;;;;;;;5054576;28;20442;-76
2023/09/30 05:52:45;;;;;;;19.27;9.90;;;;;;;;;;5053496;28;20465;-76
2023/09/30 05:55:15;;;;;;;21.37;10.13;;;;;;;;;;5054062;28;20448;-76
2023/09/30 05:57:45;;;;;;;23.67;9.70;;;;;;;;;;5054259;28;20492;-76
2023/09/30 06:00:20;;;;;;;25.43;9.90;;;;;;;;;;5060305;28;20421;-76
2023/09/30 06:02:51;;;;;;;18.20;10.00;;;;;;;;;;5074178;28;20439;-76
2023/09/30 06:05:22;;;;;;;16.03;8.77;;;;;;;;;;5074230;28;20507;-76
2023/09/30 06:07:49;;;;;;;17.73;9.33;;;;;;;;;;5074038;28;20425;-76
2023/09/30 06:10:18;;;;;;;21.00;9.67;;;;;;;;;;5054517;28;20512;-76
2023/09/30 06:12:48;;;;;;;22.50;10.07;;;;;;;;;;5061868;28;20476;-76
2023/09/30 06:15:15;;;;;;;16.37;9.43;;;;;;;;;;5071085;28;20516;-76
2023/09/30 06:17:43;;;;;;;20.93;11.03;;;;;;;;;;5072966;28;20798;-76
2023/09/30 06:20:16;;;;;;;23.20;9.47;;;;;;;;;;5073617;28;20948;-76
2023/09/30 06:22:47;;;;;;;17.63;8.40;;;;;;;;;;5066359;28;20464;-76
2023/09/30 06:25:16;;;;;;;18.10;8.83;;;;;;;;;;5053948;28;20425;-76
2023/09/30 06:27:43;;;;;;;13.67;7.70;;;;;;;;;;5053637;28;20437;-76
2023/09/30 06:30:17;;;;;;;19.17;9.17;;;;;;;;;;5053551;28;20451;-76
2023/09/30 06:32:47;;;;;;;19.77;8.13;;;;;;;;;;5060521;28;20547;-76
2023/09/30 06:35:14;;;;;;;15.10;8.70;;;;;;;;;;5073704;28;20490;-76
2023/09/30 06:37:42;;;;;;;15.43;8.40;;;;;;;;;;5073790;28;20520;-76
2023/09/30 06:40:12;;;;;;;17.07;8.00;;;;;;;;;;5073444;28;20436;-76
2023/09/30 06:42:40;;;;;;;14.07;7.20;;;;;;;;;;5067150;28;20499;-76
2023/09/30 06:45:09;;;;;;;13.73;7.10;;;;;;;;;;5053359;28;20433;-76
2023/09/30 06:47:37;;;;;;;13.33;6.20;;;;;;;;;;5053359;28;20520;-76
2023/09/30 06:50:09;;;;;;;15.70;8.03;;;;;;;;;;5053283;28;20437;-76
2023/09/30 06:52:37;;;;;;;12.80;6.70;;;;;;;;;;5063098;28;20465;-76
2023/09/30 06:55:05;;;;;;;14.67;7.10;;;;;;;;;;5053178;28;20437;-76
2023/09/30 06:57:35;;;;;;;11.43;6.57;;;;;;;;;;5053435;28;20437;-76
2023/09/30 07:00:13;;;;;;;14.10;6.00;;;;;;;;;;5053424;28;20433;-76
2023/09/30 07:02:41;;;;;;;14.67;6.90;;;;;;;;;;5059089;28;20428;-76
2023/09/30 07:05:18;;;;;;;13.40;6.67;;;;;;;;;;5072824;28;20439;-76
2023/09/30 07:07:46;;;;;;;13.10;6.30;;;;;;;;;;5068091;28;20437;-76
2023/09/30 07:10:14;;;;;;;11.80;6.50;;;;;;;;;;5052919;28;20437;-76
2023/09/30 07:12:43;;;;;;;13.53;7.27;;;;;;;;;;5053162;28;20564;-76
2023/09/30 07:15:14;;;;;;;15.20;6.90;;;;;;;;;;5062320;28;20513;-76
2023/09/30 07:17:43;;;;;;;14.87;6.37;;;;;;;;;;5073100;28;20925;-76
2023/09/30 07:20:12;;;;;;;13.87;7.20;;;;;;;;;;5073164;28;20516;-76
2023/09/30 07:22:40;;;;;;;14.83;8.10;;;;;;;;;;5071408;28;20494;-76
2023/09/30 07:25:08;;;;;;;14.30;6.73;;;;;;;;;;5072167;28;20926;-76
2023/09/30 07:27:36;;;;;;;19.13;7.37;;;;;;;;;;5070111;28;20467;-76
2023/09/30 07:30:06;;;;;;;15.83;6.97;;;;;;;;;;5054803;28;20476;-76
2023/09/30 07:32:36;;;;;;;12.93;6.33;;;;;;;;;;5052502;28;20835;-76
2023/09/30 07:35:04;;;;;;;15.53;8.27;;;;;;;;;;5052172;28;20499;-76
2023/09/30 07:37:31;;;;;;;15.93;7.40;;;;;;;;;;5052088;28;20564;-76
2023/09/30 07:40:04;;;;;;;15.90;7.33;;;;;;;;;;5066940;28;20440;-76
2023/09/30 07:42:35;;;;;;;18.90;7.67;;;;;;;;;;5070776;28;20456;-76
2023/09/30 07:45:03;;;;;;;14.37;7.00;;;;;;;;;;5072338;28;20455;-76
2023/09/30 07:47:34;;;;;;;14.13;7.43;;;;;;;;;;5071852;28;20451;-76
2023/09/30 07:50:02;;;;;;;19.00;7.93;;;;;;;;;;5068921;28;20429;-76
2023/09/30 07:52:29;;;;;;;14.70;7.03;;;;;;;;;;5050721;28;20555;-76
2023/09/30 07:54:57;;;;;;;14.47;6.37;;;;;;;;;;5052065;28;20532;-76
2023/09/30 07:57:25;;;;;;;14.37;6.20;;;;;;;;;;5052147;28;20516;-76
2023/09/30 07:59:53;;;;;;;12.87;6.93;;;;;;;;;;5051988;28;20443;-76
2023/09/30 08:02:22;;;;;;;16.20;7.60;;;;;;;;;;5052886;28;20444;-76
2023/09/30 08:04:51;;;;;;;16.40;7.00;;;;;;;;;;5051590;28;20438;-76
2023/09/30 08:07:19;;;;;;;15.67;7.63;;;;;;;;;;5052169;28;20495;-76
2023/09/30 08:09:47;;;;;;;24.27;8.67;;;;;;;;;;5051900;28;20480;-76
2023/09/30 08:12:20;;;;;;;19.43;9.03;;;;;;;;;;5052366;28;20465;-76
2023/09/30 08:14:51;;;;;;;16.77;8.60;;;;;;;;;;5062539;28;20801;-76
2023/09/30 08:17:21;;;;;;;18.83;9.37;;;;;;;;;;5071855;28;20478;-76
2023/09/30 08:19:49;;;;;;;22.13;9.77;;;;;;;;;;5075581;28;20471;-76
2023/09/30 08:22:27;;;;;;;20.97;10.43;;;;;;;;;;5074818;28;21027;-76
2023/09/30 08:24:55;;;;;;;18.93;8.57;;;;;;;;;;5075673;28;20446;-76
2023/09/30 08:27:24;;;;;;;18.30;8.77;;;;;;;;;;5057532;28;20452;-76
2023/09/30 08:29:59;;;;;;;19.83;9.70;;;;;;;;;;5055100;28;20443;-76
2023/09/30 08:32:33;;;;;;;17.80;9.80;;;;;;;;;;5055123;28;20491;-76
2023/09/30 08:35:02;;;;;;;17.30;9.13;;;;;;;;;;5055281;28;20426;-76
2023/09/30 08:37:32;;;;;;;16.37;8.90;;;;;;;;;;5065271;28;20462;-76
2023/09/30 08:40:00;;;;;;;19.83;9.50;;;;;;;;;;5074923;28;20444;-76
2023/09/30 08:42:32;;;;;;;16.13;9.57;;;;;;;;;;5075599;28;20443;-76
2023/09/30 08:45:00;;;;;;;19.90;10.57;;;;;;;;;;5061059;28;20430;-76
2023/09/30 08:47:35;;;;;;;19.10;9.80;;;;;;;;;;5051783;28;20466;-76
2023/09/30 08:50:06;;;;;;;19.17;11.20;;;;;;;;;;5074853;28;20515;-76
2023/09/30 08:52:40;;;;;;;21.50;10.77;;;;;;;;;;5059065;28;20473;-76
2023/09/30 08:55:08;;;;;;;21.80;10.57;;;;;;;;;;5055843;28;20971;-76
2023/09/30 08:57:38;;;;;;;21.53;9.87;;;;;;;;;;5055153;28;20444;-76
2023/09/30 09:00:06;;;;;;;15.73;8.67;;;;;;;;;;5067481;28;20524;-76
2023/09/30 09:02:37;;;;;;;20.03;8.83;;;;;;;;;;5074410;28;20436;-76
2023/09/30 09:05:11;;;;;;;22.50;10.10;;;;;;;;;;5074838;28;20537;-76
2023/09/30 09:07:42;;;;;;;17.57;8.60;;;;;;;;;;5074458;28;20420;-76
2023/09/30 09:10:12;;;;;;;19.60;9.87;;;;;;;;;;5074091;28;20436;-76
2023/09/30 09:12:44;;;;;;;21.33;10.57;;;;;;;;;;5055261;28;20474;-76
2023/09/30 09:15:22;;;;;;;23.73;10.60;;;;;;;;;;5054721;28;20764;-76
2023/09/30 09:17:50;;;;;;;24.90;9.23;;;;;;;;;;5054200;28;20475;-76
2023/09/30 09:20:34;;;;;;;16.00;9.27;;;;;;;;;;5054911;28;20503;-76
2023/09/30 09:23:03;;;;;;;17.30;9.30;;;;;;;;;;5059099;28;20511;-76
2023/09/30 09:25:33;;;;;;;15.27;8.30;;;;;;;;;;5074365;28;20861;-76
2023/09/30 09:28:00;;;;;;;18.43;9.97;;;;;;;;;;5074486;28;20455;-76
2023/09/30 09:30:30;;;;;;;15.30;8.80;;;;;;;;;;5074192;28;20490;-76
2023/09/30 09:33:04;;;;;;;16.77;10.57;;;;;;;;;;5061312;28;20554;-77
2023/09/30 09:35:33;;;;;;;17.60;10.30;;;;;;;;;;5063719;28;20435;-77
2023/09/30 09:38:03;;;;;;;14.47;10.27;;;;;;;;;;5070454;28;20475;-77
2023/09/30 09:40:33;;;;;;;18.50;10.20;;;;;;;;;;5053962;28;20512;-77
2023/09/30 09:43:05;;;;;;;16.27;9.63;;;;;;;;;;5053963;28;20445;-77
2023/09/30 09:45:34;;;;;;;17.60;10.90;;;;;;;;;;5053782;28;20429;-77
2023/09/30 09:48:05;;;;;;;18.97;11.00;;;;;;;;;;5054727;28;20425;-77
2023/09/30 09:50:43;;;;;;;18.10;10.90;;;;;;;;;;5053535;28;20907;-76
2023/09/30 09:53:15;;;;;;;19.33;11.03;;;;;;;;;;5053473;28;20461;-76
2023/09/30 09:55:44;;;;;;;19.10;11.33;;;;;;;;;;5053720;28;20431;-76
2023/09/30 09:58:12;;;;;;;20.07;12.07;;;;;;;;;;5054185;28;20516;-76
2023/09/30 10:00:42;;;;;;;16.80;9.23;;;;;;;;;;5062713;28;20448;-76
2023/09/30 10:03:12;;;;;;;21.10;11.07;;;;;;;;;;5073607;28;20440;-77
2023/09/30 10:05:42;;;;;;;15.73;9.47;;;;;;;;;;5071808;28;20447;-76
2023/09/30 10:08:13;;;;;;;20.40;10.13;;;;;;;;;;5073113;28;20425;-76
2023/09/30 10:10:40;;;;;;;17.87;9.20;;;;;;;;;;5061906;28;20539;-76
2023/09/30 10:13:09;;;;;;;15.67;9.50;;;;;;;;;;5061380;28;20505;-76
2023/09/30 10:15:40;;;;;;;17.00;9.10;;;;;;;;;;5053188;28;20568;-76
2023/09/30 10:18:09;;;;;;;15.70;9.73;;;;;;;;;;5053399;28;20499;-76
2023/09/30 10:20:37;;;;;;;17.83;8.87;;;;;;;;;;5065261;28;20439;-76
2023/09/30 10:23:24;;;;;;;14.23;8.20;;;;;;;;;;5072850;28;20462;-76
2023/09/30 10:25:57;;;;;;;13.70;8.47;;;;;;;;;;5071513;28;20428;-76
2023/09/30 10:28:38;;;;;;;13.00;7.37;;;;;;;;;;5073066;28;20420;-76
2023/09/30 10:31:13;;;;;;;15.53;8.03;;;;;;;;;;5062287;28;20804;-76
2023/09/30 10:33:59;;;;;;;17.60;9.00;;;;;;;;;;5052692;28;21028;-76
2023/09/30 10:36:33;;;;;;;17.40;8.57;;;;;;;;;;5053448;28;20441;-76
2023/09/30 10:39:04;;;;;;;16.10;8.33;;;;;;;;;;5065779;28;20463;-76
2023/09/30 10:41:51;;;;;;;17.63;8.27;;;;;;;;;;5067065;28;20503;-76
2023/09/30 10:44:36;;;;;;;18.57;8.97;;;;;;;;;;5073037;28;20428;-76
2023/09/30 10:47:22;;;;;;;17.90;9.63;;;;;;;;;;5072701;28;20433;-76
2023/09/30 10:49:49;;;;;;;16.77;8.43;;;;;;;;;;5069615;28;20447;-76
2023/09/30 10:52:24;;;;;;;16.13;8.23;;;;;;;;;;5034184;28;20461;-76
2023/09/30 10:54:52;;;;;;;14.73;8.60;;;;;;;;;;5072620;28;20477;-76
2023/09/30 10:57:29;;;;;;;18.57;8.40;;;;;;;;;;5054168;28;20441;-76
2023/09/30 11:00:22;;;;;;;17.53;8.37;;;;;;;;;;5059498;28;20441;-76
2023/09/30 11:02:57;;;;;;;18.43;9.00;;;;;;;;;;5050643;28;20432;-76
2023/09/30 11:05:29;;;;;;;15.60;8.57;;;;;;;;;;5052125;28;20863;-76
2023/09/30 11:08:03;;;;;;;13.90;7.63;;;;;;;;;;5052058;28;20492;-76
2023/09/30 11:10:31;;;;;;;19.37;8.33;;;;;;;;;;5052599;28;20521;-76
2023/09/30 11:12:59;;;;;;;17.97;8.57;;;;;;;;;;5052506;28;20484;-76
2023/09/30 11:15:28;;;;;;;17.97;9.37;;;;;;;;;;5052280;28;20436;-76
2023/09/30 11:18:14;;;;;;;16.40;7.70;;;;;;;;;;5052394;28;20516;-75
2023/09/30 11:20:41;;;;;;;17.30;9.10;;;;;;;;;;5051826;28;20456;-76
2023/09/30 11:23:08;;;;;;;16.90;9.27;;;;;;;;;;5048793;28;20818;-76
2023/09/30 11:25:37;;;;;;;16.37;7.97;;;;;;;;;;5052636;28;20482;-76
2023/09/30 11:28:16;;;;;;;18.07;9.07;;;;;;;;;;5052537;28;20779;-76
2023/09/30 11:30:58;;;;;;;22.77;10.27;;;;;;;;;;5052286;28;20441;-76
2023/09/30 11:33:26;;;;;;;18.00;8.73;;;;;;;;;;5052070;28;20837;-76
2023/09/30 11:36:01;;;;;;;20.50;9.90;;;;;;;;;;5052225;28;20446;-76
2023/09/30 11:38:29;;;;;;;20.53;10.00;;;;;;;;;;5052324;28;20444;-76
2023/09/30 11:41:00;;;;;;;21.27;10.00;;;;;;;;;;5052332;28;20438;-76
2023/09/30 11:43:29;;;;;;;22.87;12.17;;;;;;;;;;5052400;28;20473;-77
2023/09/30 11:46:08;;;;;;;18.57;9.97;;;;;;;;;;5052273;28;20446;-77
2023/09/30 11:48:36;;;;;;;14.97;8.93;;;;;;;;;;5052276;28;20946;-77
2023/09/30 11:51:04;;;;;;;19.40;10.70;;;;;;;;;;5052431;28;20448;-77
2023/09/30 11:53:31;;;;;;;14.97;10.53;;;;;;;;;;5056124;28;20941;-77
2023/09/30 11:55:59;;;;;;;19.87;11.73;;;;;;;;;;5056517;28;20440;-77
2023/09/30 11:58:32;;;;;;;17.80;11.83;;;;;;;;;;5056325;28;20453;-77
2023/09/30 12:01:03;;;;;;;15.87;10.80;;;;;;;;;;5056550;28;20483;-77
2023/09/30 12:03:31;;;;;;;16.00;11.23;;;;;;;;;;5056277;28;20425;-77
2023/09/30 12:06:04;;;;;;;18.50;11.63;;;;;;;;;;5056089;28;20459;-77
2023/09/30 12:08:31;;;;;;;20.47;13.07;;;;;;;;;;5055672;28;20524;-77
2023/09/30 12:11:04;;;;;;;17.30;11.23;;;;;;;;;;5055710;28;20445;-77
2023/09/30 12:13:31;;;;;;;20.80;13.00;;;;;;;;;;5053154;28;21023;-77
2023/09/30 12:15:58;;;;;;;20.13;11.03;;;;;;;;;;5056011;28;20787;-77
2023/09/30 12:18:26;;;;;;;20.53;14.53;;;;;;;;;;5055611;28;20518;-76
2023/09/30 12:21:00;;;;;;;21.50;12.60;;;;;;;;;;5056008;28;20427;-76
2023/09/30 12:23:27;;;;;;;24.13;11.30;;;;;;;;;;5055914;28;20438;-77
2023/09/30 12:25:54;;;;;;;21.03;12.60;;;;;;;;;;5055586;28;20936;-76
2023/09/30 12:28:22;;;;;;;22.40;11.23;;;;;;;;;;5055734;28;20441;-76
2023/09/30 12:30:54;;;;;;;22.50;12.63;;;;;;;;;;5055426;28;20437;-76
2023/09/30 12:33:21;;;;;;;23.57;11.67;;;;;;;;;;5054847;28;20522;-76
2023/09/30 12:35:48;;;;;;;22.60;12.77;;;;;;;;;;5055854;28;20433;-76
2023/09/30 12:38:17;;;;;;;18.77;11.90;;;;;;;;;;5055465;28;20786;-76
2023/09/30 12:40:45;;;;;;;22.53;12.90;;;;;;;;;;5055126;28;20429;-76
2023/09/30 12:43:12;;;;;;;21.73;11.50;;;;;;;;;;5055306;28;20453;-76
2023/09/30 12:45:39;;;;;;;19.57;10.57;;;;;;;;;;5055350;28;20538;-76
2023/09/30 12:48:08;;;;;;;20.13;11.03;;;;;;;;;;5055158;28;20433;-76
2023/09/30 12:50:36;;;;;;;20.60;11.17;;;;;;;;;;5055172;28;20514;-76
2023/09/30 12:53:03;;;;;;;20.60;10.73;;;;;;;;;;5055047;28;20774;-76
2023/09/30 12:55:35;;;;;;;22.43;11.87;;;;;;;;;;5054688;28;20437;-76
2023/09/30 12:58:04;;;;;;;23.67;11.33;;;;;;;;;;5054777;28;20418;-76
2023/09/30 13:00:32;;;;;;;18.00;10.67;;;;;;;;;;5054672;28;21002;-76
2023/09/30 13:03:00;;;;;;;29.33;12.20;;;;;;;;;;5053708;28;20433;-76
2023/09/30 13:05:29;;;;;;;19.13;11.53;;;;;;;;;;5054900;28;20441;-76
2023/09/30 13:07:56;;;;;;;23.30;11.87;;;;;;;;;;5052042;28;20491;-76
2023/09/30 13:10:25;;;;;;;20.20;10.57;;;;;;;;;;5056906;28;20433;-76
2023/09/30 13:12:53;;;;;;;19.67;10.97;;;;;;;;;;5054261;28;20919;-76
2023/09/30 13:15:24;;;;;;;22.53;12.20;;;;;;;;;;5054344;28;20473;-76
2023/09/30 13:17:51;;;;;;;22.60;11.70;;;;;;;;;;5054495;28;20505;-75
2023/09/30 13:20:21;;;;;;;20.20;9.77;;;;;;;;;;5054176;28;20425;-76
2023/09/30 13:22:48;;;;;;;20.40;10.97;;;;;;;;;;5058958;28;20456;-76
2023/09/30 13:25:17;;;;;;;22.27;11.10;;;;;;;;;;5074582;28;20425;-76
2023/09/30 13:27:44;;;;;;;17.57;8.90;;;;;;;;;;5074155;28;20428;-76
2023/09/30 13:30:14;;;;;;;20.87;10.90;;;;;;;;;;5054882;28;20442;-76
2023/09/30 13:32:41;;;;;;;17.77;10.27;;;;;;;;;;5054357;28;20461;-76
2023/09/30 13:35:09;;;;;;;13.73;8.90;;;;;;;;;;5054080;28;20992;-76
2023/09/30 13:37:36;;;;;;;24.23;10.87;;;;;;;;;;5053689;28;20440;-76
2023/09/30 13:40:11;;;;;;;18.10;8.60;;;;;;;;;;5054240;28;20984;-76
2023/09/30 13:42:39;;;;;;;20.93;10.10;;;;;;;;;;5058922;28;20428;-76
2023/09/30 13:45:07;;;;;;;18.97;9.50;;;;;;;;;;5074136;28;20775;-76
2023/09/30 13:47:36;;;;;;;19.90;9.73;;;;;;;;;;5074193;28;20448;-76
2023/09/30 13:50:04;;;;;;;16.70;10.27;;;;;;;;;;5073750;28;20443;-76
2023/09/30 13:52:31;;;;;;;18.17;9.00;;;;;;;;;;5072536;28;20493;-76
2023/09/30 13:55:04;;;;;;;18.07;10.73;;;;;;;;;;5054577;28;20473;-76
2023/09/30 13:57:33;;;;;;;21.30;10.10;;;;;;;;;;5054274;28;20761;-76
2023/09/30 14:00:00;;;;;;;18.90;8.90;;;;;;;;;;5053813;28;20442;-76
2023/09/30 14:02:28;;;;;;;17.97;9.97;;;;;;;;;;5058474;28;20464;-76
2023/09/30 14:04:56;;;;;;;16.83;9.20;;;;;;;;;;5073310;28;20440;-76
2023/09/30 14:07:24;;;;;;;27.10;10.90;;;;;;;;;;5073589;28;20505;-76
2023/09/30 14:09:52;;;;;;;20.23;10.03;;;;;;;;;;5073457;28;20424;-76
2023/09/30 14:12:19;;;;;;;18.40;8.90;;;;;;;;;;5073702;28;20780;-76
2023/09/30 14:14:47;;;;;;;16.70;8.47;;;;;;;;;;5072348;28;20479;-76
2023/09/30 14:18:02;;;;;;;16.10;7.97;;;;;;;;;;5066804;28;20442;-76
2023/09/30 14:20:33;;;;;;;16.37;8.93;;;;;;;;;;5013608;28;20431;-76
2023/09/30 14:23:01;;;;;;;21.33;9.50;;;;;;;;;;5012937;28;20470;-76
2023/09/30 14:25:29;;;;;;;20.10;10.23;;;;;;;;;;5013463;28;20446;-76
2023/09/30 14:27:59;;;;;;;17.93;9.67;;;;;;;;;;5013642;28;20509;-76
2023/09/30 14:30:29;;;;;;;19.90;10.67;;;;;;;;;;5013681;28;20854;-76
2023/09/30 14:32:56;;;;;;;16.50;9.60;;;;;;;;;;5011925;28;20526;-76
2023/09/30 14:35:31;;;;;;;15.57;8.67;;;;;;;;;;5012810;28;20828;-76
2023/09/30 14:37:58;;;;;;;21.70;11.27;;;;;;;;;;5013509;28;20482;-76
2023/09/30 14:40:25;;;;;;;18.30;8.37;;;;;;;;;;5013816;28;20466;-76